Time;durP1;ratioP1;P1;durP2;ratioP2;P2;SDS_P1;SDS_P2;PMS_P1;PMS_P2;Temp;Humidity;BMP_temperature;BMP_pressure;BME280_temperature;BME280_humidity;BME280_pressure;Samples;Min_cycle;Max_cycle;Signal;HPM_P1;HPM_P2
2023/05/02 00:01:10;;;;;;;6.73;6.07;;;;;;;10.47;100.00;96425.91;5036339;27;102652;-61
2023/05/02 00:03:43;;;;;;;7.00;6.47;;;;;;;10.46;100.00;96421.66;5021934;27;103209;-61
2023/05/02 00:06:10;;;;;;;6.63;6.13;;;;;;;10.51;100.00;96415.56;4992789;28;101964;-61
2023/05/02 00:08:38;;;;;;;7.10;6.50;;;;;;;10.51;100.00;96411.06;5002406;28;101858;-61
2023/05/02 00:11:05;;;;;;;7.03;6.40;;;;;;;10.54;100.00;96420.41;5011753;28;105605;-61
2023/05/02 00:13:33;;;;;;;6.47;5.87;;;;;;;10.55;100.00;96412.19;5032095;28;102627;-61
2023/05/02 00:16:00;;;;;;;7.00;6.40;;;;;;;10.59;100.00;96417.81;5033097;27;101777;-61
2023/05/02 00:18:27;;;;;;;6.50;5.90;;;;;;;10.63;100.00;96425.03;5030357;28;103553;-61
2023/05/02 00:20:55;;;;;;;6.90;6.30;;;;;;;10.64;100.00;96423.19;5034354;28;105395;-61
2023/05/02 00:26:45;;;;;;;6.10;5.50;;;;;;;10.66;100.00;96418.41;5015772;28;104356;-61
2023/05/02 00:29:12;;;;;;;5.40;4.90;;;;;;;10.61;100.00;96421.81;5029722;28;103700;-61
2023/05/02 00:31:41;;;;;;;5.90;5.50;;;;;;;10.60;100.00;96424.72;5032648;27;102643;-61
2023/05/02 00:34:49;;;;;;;5.77;5.27;;;;;;;10.63;100.00;96421.59;5032036;27;101896;-61
2023/05/02 00:37:18;;;;;;;5.53;5.03;;;;;;;10.57;100.00;96409.28;5029200;27;101982;-61
2023/05/02 00:39:45;;;;;;;5.60;5.10;;;;;;;10.57;100.00;96410.06;5013242;28;105822;-61
2023/05/02 00:42:12;;;;;;;5.63;5.23;;;;;;;10.63;100.00;96416.25;5011770;28;105279;-61
2023/05/02 00:44:39;;;;;;;5.17;4.77;;;;;;;10.62;100.00;96418.09;5014727;28;102004;-61
2023/05/02 00:47:06;;;;;;;5.17;4.77;;;;;;;10.60;100.00;96411.44;5012073;28;103093;-61
2023/05/02 00:49:33;;;;;;;5.23;4.83;;;;;;;10.50;100.00;96414.78;5026577;28;101881;-61
2023/05/02 00:52:00;;;;;;;4.37;4.07;;;;;;;10.49;100.00;96415.03;5030896;28;105732;-61
2023/05/02 00:54:39;;;;;;;4.87;4.47;;;;;;;10.44;100.00;96409.66;5030163;28;103714;-61
2023/05/02 00:57:06;;;;;;;5.53;5.03;;;;;;;10.41;100.00;96418.94;5031184;28;101748;-61
2023/05/02 00:59:35;;;;;;;5.37;4.97;;;;;;;10.48;100.00;96414.22;5029939;27;102326;-61
2023/05/02 01:02:18;;;;;;;4.63;4.23;;;;;;;10.43;100.00;96413.38;5010378;28;105466;-61
2023/05/02 01:05:35;;;;;;;4.97;3.67;;;;;;;10.35;100.00;96416.47;5027128;28;101882;-61
2023/05/02 01:08:13;;;;;;;3.77;3.47;;;;;;;10.36;100.00;96413.53;5000401;28;103845;-61
2023/05/02 01:10:50;;;;;;;4.03;3.73;;;;;;;10.37;100.00;96417.81;5031015;28;102079;-61
2023/05/02 01:13:22;;;;;;;3.90;3.60;;;;;;;10.43;100.00;96416.03;5017526;27;102566;-61
2023/05/02 01:15:50;;;;;;;3.90;3.50;;;;;;;10.49;100.00;96428.31;5010205;28;105280;-61
2023/05/02 01:18:21;;;;;;;4.20;3.80;;;;;;;10.39;100.00;96423.69;5020904;28;101866;-61
2023/05/02 01:20:53;;;;;;;3.63;3.43;;;;;;;10.34;100.00;96420.97;5012216;28;102246;-61
2023/05/02 01:23:44;;;;;;;3.70;3.40;;;;;;;10.35;100.00;96430.56;5009931;28;105480;-61
2023/05/02 01:26:21;;;;;;;3.93;3.63;;;;;;;10.32;100.00;96431.06;5007167;28;103502;-61
2023/05/02 01:29:04;;;;;;;3.20;3.00;;;;;;;10.42;100.00;96436.47;5019541;28;105280;-61
2023/05/02 01:31:35;;;;;;;3.70;3.40;;;;;;;10.41;100.00;96437.53;5014373;28;105500;-61
2023/05/02 01:34:04;;;;;;;3.53;3.33;;;;;;;10.32;100.00;96436.38;5011929;28;102456;-61
2023/05/02 01:36:34;;;;;;;3.73;3.47;;;;;;;10.33;100.00;96437.97;5012250;28;104807;-61
2023/05/02 01:39:03;;;;;;;3.67;3.37;;;;;;;10.28;100.00;96440.56;5011565;28;101965;-61
2023/05/02 01:41:32;;;;;;;3.67;3.37;;;;;;;10.33;100.00;96443.31;5025822;28;102391;-61
2023/05/02 01:44:07;;;;;;;4.20;3.80;;;;;;;10.32;100.00;96441.69;5025193;28;105725;-61
2023/05/02 01:46:38;;;;;;;3.67;3.43;;;;;;;10.33;100.00;96442.47;5031808;27;101836;-61
2023/05/02 01:49:08;;;;;;;3.60;3.30;;;;;;;10.33;100.00;96445.13;5029500;27;105671;-61
2023/05/02 01:51:40;;;;;;;3.57;2.97;;;;;;;10.27;100.00;96444.28;5029858;28;105319;-61
2023/05/02 01:54:55;;;;;;;3.97;3.17;;;;;;;10.32;100.00;96438.22;5027094;28;102018;-61
2023/05/02 01:57:23;;;;;;;3.30;3.10;;;;;;;10.29;100.00;96446.69;5009541;28;103860;-61
2023/05/02 01:59:56;;;;;;;3.40;3.10;;;;;;;10.25;100.00;96443.72;5010881;28;101946;-61
2023/05/02 02:02:25;;;;;;;3.00;2.80;;;;;;;10.14;100.00;96444.63;4991498;28;102548;-61
2023/05/02 02:04:56;;;;;;;2.80;2.60;;;;;;;10.15;100.00;96448.88;5008371;28;105439;-61
2023/05/02 02:07:23;;;;;;;3.30;3.10;;;;;;;10.19;100.00;96444.69;5010129;28;101749;-61
2023/05/02 02:09:52;;;;;;;3.37;3.17;;;;;;;10.24;100.00;96446.63;5012393;28;102303;-61
2023/05/02 02:12:26;;;;;;;3.13;2.93;;;;;;;10.15;100.00;96438.25;5010513;28;102610;-61
2023/05/02 02:15:44;;;;;;;3.57;3.10;;;;;;;10.15;100.00;96445.44;5028336;28;101946;-61
2023/05/02 02:18:18;;;;;;;2.80;2.60;;;;;;;10.11;100.00;96431.84;5032456;28;105909;-61
2023/05/02 02:20:47;;;;;;;2.57;2.40;;;;;;;10.08;100.00;96444.84;5027744;28;101811;-61
2023/05/02 02:23:18;;;;;;;2.73;2.53;;;;;;;10.05;100.00;96446.13;5013424;28;105354;-61
2023/05/02 02:25:46;;;;;;;2.50;2.40;;;;;;;10.11;100.00;96454.94;5028598;28;103989;-61
2023/05/02 02:28:16;;;;;;;2.57;2.47;;;;;;;10.13;100.00;96450.19;5028980;28;104799;-61
2023/05/02 02:30:43;;;;;;;2.30;2.20;;;;;;;10.20;100.00;96454.28;5029359;28;103629;-61
2023/05/02 02:33:38;;;;;;;2.60;2.40;;;;;;;10.20;100.00;96450.84;5029139;28;105300;-61
2023/05/02 02:36:10;;;;;;;2.33;2.20;;;;;;;10.21;100.00;96447.13;5027765;28;101979;-61
2023/05/02 02:38:42;;;;;;;2.10;2.00;;;;;;;10.11;100.00;96447.78;5024879;27;102636;-61
2023/05/02 02:41:16;;;;;;;2.40;2.20;;;;;;;10.08;100.00;96455.47;5012011;28;101924;-61
2023/05/02 02:44:04;;;;;;;2.27;2.07;;;;;;;10.12;100.00;96453.91;5011009;28;102292;-61
2023/05/02 02:46:46;;;;;;;2.10;2.00;;;;;;;10.06;100.00;96452.22;5011367;28;103100;-61
2023/05/02 02:49:27;;;;;;;2.10;2.00;;;;;;;10.01;100.00;96452.13;5010812;28;102097;-61
2023/05/02 02:52:02;;;;;;;2.20;2.10;;;;;;;9.99;100.00;96459.53;5022346;28;105555;-61
2023/05/02 02:55:05;;;;;;;2.20;2.10;;;;;;;9.96;100.00;96460.84;5030027;27;103148;-61
2023/05/02 02:57:39;;;;;;;2.47;1.90;;;;;;;10.06;100.00;96461.00;5009954;28;102206;-61
2023/05/02 03:00:12;;;;;;;2.30;2.10;;;;;;;10.05;100.00;96450.63;5027124;28;105314;-61
2023/05/02 03:02:42;;;;;;;2.30;2.20;;;;;;;10.08;100.00;96458.13;5015966;28;103755;-61
2023/05/02 03:05:13;;;;;;;2.30;2.13;;;;;;;10.10;100.00;96459.47;5029254;28;105981;-61
2023/05/02 03:07:42;;;;;;;2.00;1.90;;;;;;;10.17;100.00;96460.09;5026886;28;105303;-61
2023/05/02 03:10:10;;;;;;;2.20;2.10;;;;;;;10.18;100.00;96458.22;5029238;28;101910;-61
2023/05/02 03:12:39;;;;;;;2.00;1.90;;;;;;;10.19;100.00;96465.97;5024337;28;104922;-61
2023/05/02 03:18:33;;;;;;;2.20;2.10;;;;;;;10.18;100.00;96455.56;5030502;27;101786;-61
2023/05/02 03:21:01;;;;;;;2.40;1.90;;;;;;;10.16;100.00;96457.69;5028524;28;105120;-61
2023/05/02 03:24:19;;;;;;;1.97;1.87;;;;;;;10.16;100.00;96460.34;5020331;28;105971;-61
2023/05/02 03:26:47;;;;;;;2.03;1.87;;;;;;;10.16;100.00;96469.13;5015051;28;101969;-61
2023/05/02 03:29:15;;;;;;;2.60;2.07;;;;;;;10.18;100.00;96468.84;5021938;28;105629;-61
2023/05/02 03:31:43;;;;;;;2.20;2.10;;;;;;;10.18;100.00;96463.53;5028639;28;101925;-61
2023/05/02 03:34:12;;;;;;;2.10;2.00;;;;;;;10.16;100.00;96466.47;5027239;28;105785;-61
2023/05/02 03:36:41;;;;;;;2.67;2.47;;;;;;;10.14;100.00;96467.75;5028216;28;105831;-61
2023/05/02 03:39:08;;;;;;;1.97;1.87;;;;;;;10.16;100.00;96466.47;5026701;28;101967;-61
2023/05/02 03:41:35;;;;;;;2.03;1.93;;;;;;;10.16;100.00;96468.31;5028592;28;103765;-61
2023/05/02 03:44:14;;;;;;;2.10;2.00;;;;;;;10.20;100.00;96467.56;5014970;28;105136;-61
2023/05/02 03:46:42;;;;;;;2.30;1.97;;;;;;;10.15;100.00;96474.69;5008638;28;102182;-61
2023/05/02 03:49:12;;;;;;;2.13;2.03;;;;;;;10.14;100.00;96479.19;5011259;28;104891;-61
2023/05/02 03:51:42;;;;;;;2.20;2.10;;;;;;;10.18;100.00;96476.81;5008233;28;101937;-61
2023/05/02 03:54:18;;;;;;;2.23;2.00;;;;;;;10.14;100.00;96481.03;5008371;28;105391;-61
2023/05/02 03:56:46;;;;;;;2.10;2.00;;;;;;;10.16;100.00;96487.72;5007813;28;105604;-61
2023/05/02 03:59:24;;;;;;;2.20;2.10;;;;;;;10.18;100.00;96490.13;5009365;28;101914;-61
2023/05/02 04:01:52;;;;;;;2.13;2.03;;;;;;;10.15;100.00;96490.63;5008608;28;105223;-61
2023/05/02 04:04:39;;;;;;;2.30;2.20;;;;;;;10.21;100.00;96490.47;5008896;28;105182;-61
2023/05/02 04:07:16;;;;;;;2.07;1.97;;;;;;;10.19;100.00;96491.75;5008405;28;101887;-61
2023/05/02 04:09:44;;;;;;;2.00;1.90;;;;;;;10.23;100.00;96498.16;5008296;28;104761;-61
2023/05/02 04:12:16;;;;;;;2.10;2.00;;;;;;;10.25;100.00;96490.75;5005288;28;106044;-62
2023/05/02 04:14:53;;;;;;;2.20;2.10;;;;;;;10.25;100.00;96491.56;5000076;28;105522;-62
2023/05/02 04:17:24;;;;;;;2.00;1.90;;;;;;;10.25;100.00;96498.75;4998437;28;105151;-61
2023/05/02 04:19:52;;;;;;;5.10;2.63;;;;;;;10.23;100.00;96503.47;5006284;28;102012;-62
2023/05/02 04:22:25;;;;;;;2.67;2.53;;;;;;;10.27;100.00;96505.41;5003379;28;105139;-62
2023/05/02 04:25:04;;;;;;;2.50;2.30;;;;;;;10.19;100.00;96513.78;4990608;28;105299;-62
2023/05/02 04:27:33;;;;;;;2.63;2.20;;;;;;;10.30;100.00;96512.88;4990548;28;101962;-62
2023/05/02 04:30:01;;;;;;;2.47;2.37;;;;;;;10.32;100.00;96512.66;4993357;28;103425;-62
2023/05/02 04:32:28;;;;;;;2.53;2.40;;;;;;;10.25;100.00;96514.69;5010500;28;105285;-62
2023/05/02 04:34:58;;;;;;;2.37;2.20;;;;;;;10.27;100.00;96529.34;5014257;28;102039;-62
2023/05/02 04:37:27;;;;;;;2.77;2.57;;;;;;;10.34;100.00;96526.47;5027604;28;105116;-62
2023/05/02 04:39:54;;;;;;;2.70;2.50;;;;;;;10.32;100.00;96533.91;5028566;28;101914;-61
2023/05/02 04:42:26;;;;;;;2.60;2.40;;;;;;;10.22;100.00;96528.44;5011160;28;105622;-61
2023/05/02 04:45:23;;;;;;;2.53;2.33;;;;;;;10.21;100.00;96530.31;5005058;28;105386;-62
2023/05/02 04:47:51;;;;;;;2.33;2.23;;;;;;;10.23;100.00;96535.38;5010758;28;101962;-62
2023/05/02 04:50:18;;;;;;;2.60;2.40;;;;;;;10.25;100.00;96549.22;5032121;27;103636;-61
2023/05/02 04:52:47;;;;;;;2.80;2.60;;;;;;;10.21;100.00;96551.56;5010792;27;102643;-62
2023/05/02 04:55:41;;;;;;;2.83;2.63;;;;;;;10.20;100.00;96557.91;5030264;28;101992;-62
2023/05/02 04:58:09;;;;;;;3.07;2.67;;;;;;;10.13;100.00;96559.94;5027340;28;105127;-61
2023/05/02 05:00:36;;;;;;;2.83;2.67;;;;;;;10.10;100.00;96564.94;5006909;28;101889;-61
2023/05/02 05:03:05;;;;;;;2.73;2.53;;;;;;;10.16;100.00;96561.31;4990726;28;104687;-61
2023/05/02 05:05:32;;;;;;;2.97;2.77;;;;;;;10.23;100.00;96572.56;4989840;28;105205;-61
2023/05/02 05:08:01;;;;;;;3.10;2.90;;;;;;;10.23;100.00;96576.03;4990659;28;101920;-61
2023/05/02 05:10:32;;;;;;;3.00;2.70;;;;;;;10.27;100.00;96585.16;4990495;28;104812;-61
2023/05/02 05:12:59;;;;;;;3.10;2.73;;;;;;;10.33;100.00;96588.69;4999625;28;105624;-61
2023/05/02 05:15:27;;;;;;;2.90;2.70;;;;;;;10.36;100.00;96585.53;5001270;28;103103;-61
2023/05/02 05:17:57;;;;;;;3.00;2.80;;;;;;;10.43;100.00;96591.50;5010625;28;105689;-61
2023/05/02 05:20:25;;;;;;;3.27;2.97;;;;;;;10.44;100.00;96593.91;5016042;28;101933;-61
2023/05/02 05:22:55;;;;;;;3.80;3.50;;;;;;;10.49;100.00;96595.81;5030619;28;105273;-62
2023/05/02 05:25:25;;;;;;;3.80;3.50;;;;;;;10.54;100.00;96599.38;4994597;28;105063;-62
2023/05/02 05:27:54;;;;;;;3.57;3.27;;;;;;;10.63;100.00;96607.75;4989784;28;102076;-62
2023/05/02 05:30:22;;;;;;;3.40;3.20;;;;;;;10.58;100.00;96607.66;4989960;28;104966;-61
2023/05/02 05:32:49;;;;;;;3.47;3.17;;;;;;;10.65;100.00;96609.09;4989239;28;105236;-61
2023/05/02 05:35:32;;;;;;;3.37;3.10;;;;;;;10.70;100.00;96611.84;4989866;28;101981;-61
2023/05/02 05:38:01;;;;;;;3.97;3.57;;;;;;;10.69;100.00;96618.19;4989791;28;104809;-61
2023/05/02 05:40:31;;;;;;;4.73;3.57;;;;;;;10.72;100.00;96619.53;4992746;28;105068;-61
2023/05/02 05:42:59;;;;;;;3.50;3.20;;;;;;;10.75;100.00;96619.06;4989719;28;104776;-61
2023/05/02 05:45:39;;;;;;;3.43;3.20;;;;;;;10.81;100.00;96624.22;4989312;28;105765;-61
2023/05/02 05:48:07;;;;;;;3.33;3.13;;;;;;;10.88;100.00;96629.34;4989834;28;102076;-61
2023/05/02 05:50:39;;;;;;;3.13;2.93;;;;;;;10.96;100.00;96632.38;4989790;28;105210;-61
2023/05/02 05:53:06;;;;;;;3.83;3.53;;;;;;;10.90;100.00;96630.72;4988691;28;105253;-61
2023/05/02 05:55:36;;;;;;;3.70;3.40;;;;;;;10.96;100.00;96634.25;4989649;28;102017;-61
2023/05/02 05:58:04;;;;;;;3.90;3.60;;;;;;;10.97;100.00;96649.16;4989709;28;104880;-61
2023/05/02 06:00:31;;;;;;;3.80;3.50;;;;;;;10.98;100.00;96646.25;4993748;28;104236;-62
2023/05/02 06:02:57;;;;;;;3.20;2.90;;;;;;;10.95;100.00;96646.75;5012597;28;101959;-61
2023/05/02 06:05:27;;;;;;;3.40;3.10;;;;;;;11.03;100.00;96649.00;5009098;28;105044;-61
2023/05/02 06:07:54;;;;;;;4.10;3.70;;;;;;;11.05;100.00;96654.88;5009561;28;101899;-61
2023/05/02 06:10:21;;;;;;;3.60;3.30;;;;;;;11.06;100.00;96653.03;5009603;28;104855;-61
2023/05/02 06:12:50;;;;;;;4.13;3.20;;;;;;;11.10;100.00;96649.59;5008925;28;104181;-61
2023/05/02 06:15:38;;;;;;;3.60;3.30;;;;;;;11.13;100.00;96653.63;5022200;28;101831;-61
2023/05/02 06:18:06;;;;;;;3.17;2.97;;;;;;;11.16;100.00;96661.94;5029467;28;105349;-61
2023/05/02 06:20:33;;;;;;;3.70;3.03;;;;;;;11.18;100.00;96662.47;5028682;28;105452;-61
2023/05/02 06:23:00;;;;;;;3.20;2.90;;;;;;;11.15;100.00;96662.97;5029101;28;102292;-61
2023/05/02 06:25:27;;;;;;;3.10;2.90;;;;;;;11.22;100.00;96662.78;5033233;27;102338;-61
2023/05/02 06:27:55;;;;;;;5.17;2.63;;;;;;;11.11;100.00;96661.03;5027756;28;101980;-61
2023/05/02 06:30:22;;;;;;;2.70;2.50;;;;;;;11.28;100.00;96667.13;5009226;28;105352;-61
2023/05/02 06:32:48;;;;;;;4.63;2.90;;;;;;;11.28;100.00;96661.81;5017198;28;105512;-61
2023/05/02 06:35:27;;;;;;;2.87;2.67;;;;;;;11.45;100.00;96657.22;5029039;27;101927;-61
2023/05/02 06:37:54;;;;;;;3.00;2.80;;;;;;;11.52;100.00;96655.16;5029067;28;104856;-61
2023/05/02 06:40:21;;;;;;;2.87;2.67;;;;;;;11.69;100.00;96669.25;5011697;28;106355;-61
2023/05/02 06:42:47;;;;;;;3.40;2.70;;;;;;;11.69;100.00;96666.56;5021621;28;102040;-61
2023/05/02 06:45:29;;;;;;;2.50;2.30;;;;;;;11.77;100.00;96672.25;5009103;28;104070;-61
2023/05/02 06:47:56;;;;;;;2.93;2.73;;;;;;;11.96;100.00;96668.22;5011387;28;102032;-61
2023/05/02 06:50:23;;;;;;;2.83;2.53;;;;;;;12.04;100.00;96662.41;5015771;28;104078;-61
2023/05/02 06:52:50;;;;;;;3.33;3.00;;;;;;;11.98;100.00;96671.41;5028569;28;102773;-61
2023/05/02 06:55:31;;;;;;;3.00;2.63;;;;;;;12.03;100.00;96673.31;5029331;28;101880;-61
2023/05/02 06:57:58;;;;;;;3.83;3.27;;;;;;;12.08;100.00;96668.84;5030897;27;102345;-61
2023/05/02 07:00:25;;;;;;;3.57;3.37;;;;;;;11.96;100.00;96670.88;5021425;27;102552;-61
2023/05/02 07:02:53;;;;;;;3.63;3.33;;;;;;;12.03;100.00;96667.97;5009046;28;101984;-61
2023/05/02 07:05:23;;;;;;;3.40;3.10;;;;;;;12.02;100.00;96674.38;5008626;28;104873;-62
2023/05/02 07:07:50;;;;;;;4.17;3.03;;;;;;;12.19;100.00;96669.72;5023245;28;105814;-62
2023/05/02 07:10:17;;;;;;;3.83;3.17;;;;;;;12.29;100.00;96672.50;5023673;28;105188;-66
2023/05/02 07:12:44;;;;;;;3.20;3.00;;;;;;;12.18;100.00;96674.28;5009488;28;105626;-61
2023/05/02 07:15:17;;;;;;;6.03;3.00;;;;;;;12.36;100.00;96681.06;4988928;28;102067;-60
2023/05/02 07:17:46;;;;;;;3.00;2.80;;;;;;;12.39;100.00;96678.72;4990860;28;105496;-61
2023/05/02 07:20:15;;;;;;;3.07;2.87;;;;;;;12.42;100.00;96670.19;5019968;28;105491;-61
2023/05/02 07:22:42;;;;;;;3.37;3.00;;;;;;;12.51;100.00;96673.19;5028539;28;101949;-61
2023/05/02 07:25:19;;;;;;;3.23;2.77;;;;;;;12.49;100.00;96673.44;5028586;28;105778;-62
2023/05/02 07:27:46;;;;;;;2.80;2.60;;;;;;;12.61;100.00;96665.28;5027807;28;105639;-61
2023/05/02 07:30:13;;;;;;;3.07;2.73;;;;;;;12.70;100.00;96666.41;5030569;28;101985;-62
2023/05/02 07:32:40;;;;;;;3.47;2.53;;;;;;;12.64;100.00;96667.44;5027665;28;105043;-61
2023/05/02 07:35:28;;;;;;;2.30;2.20;;;;;;;12.58;100.00;96673.78;5028260;28;101939;-61
2023/05/02 07:37:55;;;;;;;2.40;2.20;;;;;;;12.40;100.00;96677.66;5027074;28;105046;-62
2023/05/02 07:40:22;;;;;;;2.00;1.90;;;;;;;12.56;100.00;96675.91;5027790;27;103349;-61
2023/05/02 07:42:49;;;;;;;3.03;2.43;;;;;;;12.67;100.00;96667.75;5028765;28;101899;-62
2023/05/02 07:45:48;;;;;;;3.10;2.30;;;;;;;12.73;100.00;96668.56;5023368;28;105406;-62
2023/05/02 07:48:15;;;;;;;2.93;2.67;;;;;;;12.80;100.00;96679.84;5012587;28;101938;-61
2023/05/02 07:50:44;;;;;;;2.30;2.20;;;;;;;12.72;100.00;96670.44;5012395;28;102034;-61
2023/05/02 07:53:29;;;;;;;2.53;2.17;;;;;;;12.98;100.00;96674.88;5028016;28;105368;-62
2023/05/02 07:55:56;;;;;;;3.47;2.27;;;;;;;12.91;100.00;96668.94;4993613;28;101757;-62
2023/05/02 07:58:23;;;;;;;2.83;2.50;;;;;;;12.65;100.00;96675.19;4993535;28;102880;-63
2023/05/02 08:00:50;;;;;;;2.43;2.23;;;;;;;12.96;100.00;96684.22;5010593;28;105317;-62
2023/05/02 08:03:28;;;;;;;2.90;2.30;;;;;;;13.22;100.00;96681.44;5014303;28;101892;-62
2023/05/02 08:05:56;;;;;;;3.70;2.33;;;;;;;13.32;100.00;96681.50;5011898;28;105064;-62
2023/05/02 08:08:23;;;;;;;4.47;2.40;;;;;;;13.05;100.00;96685.34;5027680;28;102867;-62
2023/05/02 08:10:50;;;;;;;2.40;2.20;;;;;;;13.10;100.00;96683.53;5033251;27;101866;-62
2023/05/02 08:13:21;;;;;;;2.30;2.10;;;;;;;13.22;100.00;96683.31;5030011;28;105293;-62
2023/05/02 08:15:48;;;;;;;2.87;2.67;;;;;;;13.28;100.00;96679.59;5036153;27;103045;-63
2023/05/02 08:18:15;;;;;;;3.03;2.50;;;;;;;13.23;100.00;96683.06;5029063;28;105234;-63
2023/05/02 08:20:43;;;;;;;2.50;2.30;;;;;;;13.30;100.00;96677.47;5029463;28;105926;-63
2023/05/02 08:23:57;;;;;;;2.47;2.27;;;;;;;13.49;100.00;96678.63;5011399;28;101895;-61
2023/05/02 08:26:25;;;;;;;2.60;2.50;;;;;;;13.50;100.00;96685.56;5023231;28;105675;-60
2023/05/02 08:28:53;;;;;;;3.07;2.80;;;;;;;13.56;100.00;96676.50;5031500;27;103126;-61
2023/05/02 08:31:19;;;;;;;2.67;2.47;;;;;;;13.63;100.00;96675.19;5031498;28;102029;-61
2023/05/02 08:34:05;;;;;;;2.60;2.40;;;;;;;13.88;100.00;96680.63;5031180;27;102333;-62
2023/05/02 08:36:32;;;;;;;2.80;2.60;;;;;;;13.53;100.00;96683.19;5011775;28;102698;-62
2023/05/02 08:38:59;;;;;;;2.90;2.47;;;;;;;13.54;100.00;96682.13;5014854;28;101947;-61
2023/05/02 08:41:29;;;;;;;2.63;2.43;;;;;;;13.48;100.00;96680.50;5010645;28;105036;-62
2023/05/02 08:44:22;;;;;;;3.53;3.20;;;;;;;13.57;100.00;96683.47;5030146;28;102051;-64
2023/05/02 08:46:51;;;;;;;3.07;2.87;;;;;;;13.83;100.00;96685.16;5027770;28;104862;-62
2023/05/02 08:49:19;;;;;;;3.13;2.93;;;;;;;13.98;100.00;96682.53;5001308;28;102129;-61
2023/05/02 08:51:50;;;;;;;3.33;3.03;;;;;;;13.94;100.00;96684.94;5031137;28;102048;-61
2023/05/02 08:54:20;;;;;;;3.20;2.90;;;;;;;13.95;100.00;96693.75;5014623;28;105688;-61
2023/05/02 08:56:49;;;;;;;2.67;2.47;;;;;;;14.23;100.00;96690.63;5013591;28;104017;-61
2023/05/02 08:59:16;;;;;;;3.00;2.80;;;;;;;14.33;100.00;96698.69;5030527;27;102032;-61
2023/05/02 09:01:46;;;;;;;4.10;3.20;;;;;;;14.29;100.00;96700.28;5017455;28;105754;-62
2023/05/02 09:04:23;;;;;;;4.77;3.13;;;;;;;14.21;100.00;96696.25;5012420;28;101855;-62
2023/05/02 09:06:50;;;;;;;3.33;3.00;;;;;;;14.29;100.00;96693.03;5012271;28;104818;-62
2023/05/02 09:09:17;;;;;;;2.80;2.57;;;;;;;14.28;100.00;96696.78;5010293;28;105272;-61
2023/05/02 09:11:46;;;;;;;3.17;2.87;;;;;;;14.67;100.00;96700.53;5016156;28;103561;-61
2023/05/02 09:14:22;;;;;;;3.03;2.73;;;;;;;14.57;100.00;96703.25;5030417;27;102357;-61
2023/05/02 09:16:50;;;;;;;3.40;3.20;;;;;;;14.20;100.00;96715.22;5029918;28;105114;-62
2023/05/02 09:19:25;;;;;;;3.50;3.13;;;;;;;14.20;100.00;96715.22;5030698;28;101915;-61
2023/05/02 09:21:53;;;;;;;5.03;3.40;;;;;;;14.29;100.00;96719.78;5034735;28;102518;-62
2023/05/02 09:24:38;;;;;;;4.80;4.30;;;;;;;14.12;100.00;96713.06;5017470;27;102274;-62
2023/05/02 09:27:05;;;;;;;3.93;3.27;;;;;;;14.30;100.00;96710.72;5011130;28;104949;-62
2023/05/02 09:29:37;;;;;;;3.97;3.57;;;;;;;14.62;100.00;96711.28;5011323;28;102533;-62
2023/05/02 09:32:05;;;;;;;3.00;2.80;;;;;;;14.35;100.00;96721.41;5012998;28;101979;-62
2023/05/02 09:35:22;;;;;;;2.90;2.70;;;;;;;14.07;100.00;96713.03;5010513;28;105170;-62
2023/05/02 09:37:51;;;;;;;2.90;2.70;;;;;;;14.02;100.00;96719.16;5022652;28;102574;-62
2023/05/02 09:40:19;;;;;;;3.60;3.30;;;;;;;14.35;100.00;96717.94;5031760;27;101833;-62
2023/05/02 09:42:46;;;;;;;3.03;2.80;;;;;;;14.33;100.00;96726.22;5019982;27;102380;-62
2023/05/02 09:45:26;;;;;;;3.20;3.00;;;;;;;14.24;100.00;96716.31;5017066;28;102718;-62
2023/05/02 09:47:53;;;;;;;3.63;3.33;;;;;;;14.65;100.00;96712.59;5015338;28;103361;-62
2023/05/02 09:50:34;;;;;;;3.97;3.43;;;;;;;14.79;100.00;96717.16;5019722;27;102089;-62
2023/05/02 09:53:29;;;;;;;3.20;3.00;;;;;;;14.66;100.00;96719.56;5018249;28;101775;-62
2023/05/02 09:56:04;;;;;;;3.47;3.00;;;;;;;14.88;100.00;96714.75;5011577;28;102821;-62
2023/05/02 09:58:31;;;;;;;3.10;2.90;;;;;;;14.96;100.00;96722.22;5010711;28;102513;-62
2023/05/02 10:00:59;;;;;;;3.57;3.27;;;;;;;14.99;100.00;96719.00;5011362;28;102414;-62
2023/05/02 10:03:41;;;;;;;3.70;3.40;;;;;;;14.82;100.00;96718.50;5011205;28;102598;-62
2023/05/02 10:06:09;;;;;;;3.10;2.90;;;;;;;14.97;100.00;96721.13;5010725;28;102919;-60
2023/05/02 10:08:37;;;;;;;3.60;3.20;;;;;;;14.97;100.00;96721.97;5033507;28;101991;-62
2023/05/02 10:11:07;;;;;;;3.60;3.40;;;;;;;15.05;100.00;96723.28;5021141;27;102920;-62
2023/05/02 10:13:49;;;;;;;3.80;3.50;;;;;;;14.75;100.00;96720.63;5011008;28;101907;-61
2023/05/02 10:16:28;;;;;;;4.80;3.50;;;;;;;15.14;100.00;96721.66;5011308;28;102359;-62
2023/05/02 10:19:03;;;;;;;3.63;3.33;;;;;;;15.06;100.00;96724.88;5018489;28;103757;-61
2023/05/02 10:21:31;;;;;;;3.47;3.27;;;;;;;15.33;100.00;96720.06;5029544;27;102184;-62
2023/05/02 10:24:06;;;;;;;4.17;3.70;;;;;;;15.49;100.00;96724.28;5018631;28;104230;-62
2023/05/02 10:26:35;;;;;;;4.13;3.83;;;;;;;15.94;100.00;96721.44;5010652;28;102730;-62
2023/05/02 10:29:02;;;;;;;4.10;3.70;;;;;;;15.35;100.00;96715.22;5010493;28;101878;-62
2023/05/02 10:31:33;;;;;;;4.00;3.70;;;;;;;15.60;100.00;96723.19;5033757;27;102811;-62
2023/05/02 10:34:03;;;;;;;8.27;4.30;;;;;;;15.65;100.00;96723.97;5020763;27;101775;-62
2023/05/02 10:36:32;;;;;;;4.23;3.87;;;;;;;15.72;100.00;96721.00;5020066;28;105098;-62
2023/05/02 10:39:01;;;;;;;3.70;3.40;;;;;;;15.52;100.00;96729.91;5030194;28;101995;-62
2023/05/02 10:41:30;;;;;;;4.30;3.90;;;;;;;15.43;100.00;96725.38;5030155;27;102007;-62
2023/05/02 10:44:06;;;;;;;4.17;3.87;;;;;;;15.51;100.00;96725.63;5021841;28;102613;-63
2023/05/02 10:46:36;;;;;;;3.90;3.60;;;;;;;15.78;100.00;96726.06;5010373;28;102200;-62
2023/05/02 10:49:04;;;;;;;4.20;3.90;;;;;;;15.75;100.00;96721.25;5010348;28;102154;-62
2023/05/02 10:51:32;;;;;;;4.10;3.80;;;;;;;15.34;100.00;96719.78;5011257;28;105395;-62
2023/05/02 10:54:23;;;;;;;3.43;3.17;;;;;;;15.53;100.00;96717.31;5012129;28;105351;-62
2023/05/02 10:57:07;;;;;;;4.03;3.73;;;;;;;15.38;100.00;96722.72;5007584;28;102520;-61
2023/05/02 10:59:36;;;;;;;3.33;3.07;;;;;;;15.29;100.00;96719.75;5001091;28;105412;-61
2023/05/02 11:02:05;;;;;;;3.40;3.10;;;;;;;14.95;100.00;96725.97;5015698;28;101898;-61
2023/05/02 11:05:23;;;;;;;3.87;3.33;;;;;;;14.84;100.00;96724.38;5027411;28;105343;-61
2023/05/02 11:07:50;;;;;;;3.50;3.30;;;;;;;14.65;100.00;96721.44;4987084;28;105770;-61
2023/05/02 11:10:28;;;;;;;3.73;3.43;;;;;;;14.78;100.00;96723.56;4994680;28;102409;-62
2023/05/02 11:12:56;;;;;;;3.77;3.47;;;;;;;14.95;100.00;96734.81;5004668;28;103216;-62
2023/05/02 11:15:55;;;;;;;3.43;3.13;;;;;;;15.08;100.00;96720.06;4998216;28;102639;-63
2023/05/02 11:18:24;;;;;;;3.83;3.53;;;;;;;15.19;100.00;96725.13;5002586;28;102964;-59
2023/05/02 11:20:51;;;;;;;3.83;3.53;;;;;;;15.38;100.00;96722.72;4995094;28;105855;-61
2023/05/02 11:26:41;;;;;;;3.10;2.90;;;;;;;15.67;100.00;96723.69;5019991;28;105433;-61
2023/05/02 11:29:08;;;;;;;3.43;3.13;;;;;;;15.84;100.00;96727.66;5019356;28;103180;-61
2023/05/02 11:31:54;;;;;;;3.30;3.00;;;;;;;16.21;100.00;96722.63;4991925;28;101974;-61
2023/05/02 11:34:23;;;;;;;3.50;3.20;;;;;;;15.93;100.00;96720.66;5016757;28;102448;-61
2023/05/02 11:36:50;;;;;;;4.30;3.20;;;;;;;16.05;100.00;96723.78;5008471;27;102717;-61
2023/05/02 11:39:20;;;;;;;3.87;3.57;;;;;;;16.05;100.00;96725.66;5016413;28;101826;-61
2023/05/02 11:41:49;;;;;;;3.30;3.10;;;;;;;15.77;100.00;96729.00;5006803;28;103002;-61
2023/05/02 11:44:24;;;;;;;3.20;3.00;;;;;;;15.77;100.00;96727.16;5007286;28;101963;-61
2023/05/02 11:46:51;;;;;;;4.13;3.83;;;;;;;15.09;100.00;96730.50;4998309;28;105081;-61
2023/05/02 11:49:19;;;;;;;4.93;3.97;;;;;;;15.09;100.00;96727.81;5011300;28;105284;-61
2023/05/02 11:51:48;;;;;;;4.17;3.80;;;;;;;15.22;100.00;96726.47;5009974;28;101892;-61